sensor_id;sensor_type;location;lat;lon;timestamp;P1;durP1;ratioP1;P2;durP2;ratioP2
20832;SDS011;56075;51.264;7.150;2023-08-01T00:01:44;2.53;;;1.70;;
20832;SDS011;56075;51.264;7.150;2023-08-01T00:04:15;5.03;;;1.70;;
20832;SDS011;56075;51.264;7.150;2023-08-01T00:06:47;2.25;;;1.58;;
20832;SDS011;56075;51.264;7.150;2023-08-01T00:09:18;1.50;;;1.40;;
20832;SDS011;56075;51.264;7.150;2023-08-01T00:11:49;2.08;;;1.52;;
20832;SDS011;56075;51.264;7.150;2023-08-01T00:14:20;1.73;;;1.20;;
20832;SDS011;56075;51.264;7.150;2023-08-01T00:16:54;2.10;;;1.45;;
20832;SDS011;56075;51.264;7.150;2023-08-01T00:19:25;4.22;;;1.30;;
20832;SDS011;56075;51.264;7.150;2023-08-01T00:21:56;1.92;;;1.40;;
20832;SDS011;56075;51.264;7.150;2023-08-01T00:24:28;2.25;;;1.20;;
20832;SDS011;56075;51.264;7.150;2023-08-01T00:26:59;2.72;;;1.52;;
20832;SDS011;56075;51.264;7.150;2023-08-01T00:29:30;2.50;;;1.33;;
20832;SDS011;56075;51.264;7.150;2023-08-01T00:32:01;2.17;;;1.50;;
20832;SDS011;56075;51.264;7.150;2023-08-01T00:34:32;2.17;;;1.40;;
20832;SDS011;56075;51.264;7.150;2023-08-01T00:37:04;2.10;;;1.30;;
20832;SDS011;56075;51.264;7.150;2023-08-01T00:39:35;2.05;;;1.15;;
20832;SDS011;56075;51.264;7.150;2023-08-01T00:42:07;2.78;;;1.40;;
20832;SDS011;56075;51.264;7.150;2023-08-01T00:44:38;4.13;;;1.75;;
20832;SDS011;56075;51.264;7.150;2023-08-01T00:47:09;4.22;;;1.92;;
20832;SDS011;56075;51.264;7.150;2023-08-01T00:49:41;5.63;;;2.05;;
20832;SDS011;56075;51.264;7.150;2023-08-01T00:52:13;4.63;;;2.08;;
20832;SDS011;56075;51.264;7.150;2023-08-01T00:54:44;5.03;;;1.98;;
20832;SDS011;56075;51.264;7.150;2023-08-01T00:57:15;6.43;;;2.20;;
20832;SDS011;56075;51.264;7.150;2023-08-01T00:59:46;6.63;;;2.03;;
20832;SDS011;56075;51.264;7.150;2023-08-01T01:02:17;4.80;;;2.20;;
20832;SDS011;56075;51.264;7.150;2023-08-01T01:04:48;7.43;;;1.70;;
20832;SDS011;56075;51.264;7.150;2023-08-01T01:07:20;5.20;;;2.00;;
20832;SDS011;56075;51.264;7.150;2023-08-01T01:09:54;4.60;;;2.20;;
20832;SDS011;56075;51.264;7.150;2023-08-01T01:12:25;3.50;;;2.00;;
20832;SDS011;56075;51.264;7.150;2023-08-01T01:14:56;2.97;;;1.80;;
20832;SDS011;56075;51.264;7.150;2023-08-01T01:17:27;4.13;;;2.13;;
20832;SDS011;56075;51.264;7.150;2023-08-01T01:19:58;3.67;;;1.80;;
20832;SDS011;56075;51.264;7.150;2023-08-01T01:22:29;5.78;;;2.10;;
20832;SDS011;56075;51.264;7.150;2023-08-01T01:25:02;7.13;;;1.15;;
20832;SDS011;56075;51.264;7.150;2023-08-01T01:27:34;2.78;;;0.90;;
20832;SDS011;56075;51.264;7.150;2023-08-01T01:30:07;1.05;;;0.65;;
20832;SDS011;56075;51.264;7.150;2023-08-01T01:32:39;2.05;;;0.63;;
20832;SDS011;56075;51.264;7.150;2023-08-01T01:35:10;7.25;;;0.60;;
20832;SDS011;56075;51.264;7.150;2023-08-01T01:37:41;1.63;;;0.50;;
20832;SDS011;56075;51.264;7.150;2023-08-01T01:40:12;1.42;;;0.70;;
20832;SDS011;56075;51.264;7.150;2023-08-01T01:42:44;1.05;;;0.70;;
20832;SDS011;56075;51.264;7.150;2023-08-01T01:45:15;1.67;;;0.60;;
20832;SDS011;56075;51.264;7.150;2023-08-01T01:47:46;1.50;;;0.70;;
20832;SDS011;56075;51.264;7.150;2023-08-01T01:50:18;1.10;;;0.70;;
20832;SDS011;56075;51.264;7.150;2023-08-01T01:52:49;2.10;;;0.82;;
20832;SDS011;56075;51.264;7.150;2023-08-01T01:55:20;4.20;;;0.85;;
20832;SDS011;56075;51.264;7.150;2023-08-01T01:57:51;1.33;;;0.82;;
20832;SDS011;56075;51.264;7.150;2023-08-01T02:00:22;1.55;;;0.70;;
20832;SDS011;56075;51.264;7.150;2023-08-01T02:02:53;1.52;;;0.80;;
20832;SDS011;56075;51.264;7.150;2023-08-01T02:05:24;2.35;;;1.20;;
20832;SDS011;56075;51.264;7.150;2023-08-01T02:07:55;1.60;;;1.10;;
20832;SDS011;56075;51.264;7.150;2023-08-01T02:10:27;2.53;;;1.63;;
20832;SDS011;56075;51.264;7.150;2023-08-01T02:12:58;2.75;;;1.58;;
20832;SDS011;56075;51.264;7.150;2023-08-01T02:15:29;4.57;;;1.88;;
20832;SDS011;56075;51.264;7.150;2023-08-01T02:18:00;7.13;;;2.13;;
20832;SDS011;56075;51.264;7.150;2023-08-01T02:20:32;4.55;;;2.17;;
20832;SDS011;56075;51.264;7.150;2023-08-01T02:23:03;6.60;;;2.75;;
20832;SDS011;56075;51.264;7.150;2023-08-01T02:25:40;5.55;;;2.90;;
20832;SDS011;56075;51.264;7.150;2023-08-01T02:28:12;7.55;;;3.13;;
20832;SDS011;56075;51.264;7.150;2023-08-01T02:30:43;6.53;;;2.70;;
20832;SDS011;56075;51.264;7.150;2023-08-01T02:33:14;5.18;;;2.20;;
20832;SDS011;56075;51.264;7.150;2023-08-01T02:35:46;3.97;;;2.17;;
20832;SDS011;56075;51.264;7.150;2023-08-01T02:38:18;4.45;;;2.00;;
20832;SDS011;56075;51.264;7.150;2023-08-01T02:40:49;3.95;;;1.80;;
20832;SDS011;56075;51.264;7.150;2023-08-01T02:43:20;5.47;;;1.85;;
20832;SDS011;56075;51.264;7.150;2023-08-01T02:45:52;2.50;;;1.55;;
20832;SDS011;56075;51.264;7.150;2023-08-01T02:48:23;3.10;;;1.75;;
20832;SDS011;56075;51.264;7.150;2023-08-01T02:50:54;3.03;;;1.70;;
20832;SDS011;56075;51.264;7.150;2023-08-01T02:53:25;4.45;;;2.28;;
20832;SDS011;56075;51.264;7.150;2023-08-01T02:55:56;8.70;;;3.17;;
20832;SDS011;56075;51.264;7.150;2023-08-01T02:58:27;9.63;;;4.30;;
20832;SDS011;56075;51.264;7.150;2023-08-01T03:00:58;11.50;;;4.70;;
20832;SDS011;56075;51.264;7.150;2023-08-01T03:03:29;11.63;;;4.35;;
20832;SDS011;56075;51.264;7.150;2023-08-01T03:06:01;10.63;;;4.78;;
20832;SDS011;56075;51.264;7.150;2023-08-01T03:08:32;10.40;;;5.07;;
20832;SDS011;56075;51.264;7.150;2023-08-01T03:11:04;13.82;;;5.53;;
20832;SDS011;56075;51.264;7.150;2023-08-01T03:13:35;12.23;;;5.20;;
20832;SDS011;56075;51.264;7.150;2023-08-01T03:16:06;11.73;;;4.80;;
20832;SDS011;56075;51.264;7.150;2023-08-01T03:18:38;12.07;;;5.70;;
20832;SDS011;56075;51.264;7.150;2023-08-01T03:21:09;17.55;;;6.50;;
20832;SDS011;56075;51.264;7.150;2023-08-01T03:23:41;16.20;;;6.68;;
20832;SDS011;56075;51.264;7.150;2023-08-01T03:26:12;18.70;;;7.85;;
20832;SDS011;56075;51.264;7.150;2023-08-01T03:28:43;17.17;;;7.55;;
20832;SDS011;56075;51.264;7.150;2023-08-01T03:31:14;24.40;;;8.57;;
20832;SDS011;56075;51.264;7.150;2023-08-01T03:33:45;23.25;;;8.55;;
20832;SDS011;56075;51.264;7.150;2023-08-01T03:36:17;30.50;;;9.60;;
20832;SDS011;56075;51.264;7.150;2023-08-01T03:38:49;24.52;;;9.20;;
20832;SDS011;56075;51.264;7.150;2023-08-01T03:41:20;25.88;;;9.23;;
20832;SDS011;56075;51.264;7.150;2023-08-01T03:43:52;31.90;;;10.60;;
20832;SDS011;56075;51.264;7.150;2023-08-01T03:46:23;38.05;;;11.07;;
20832;SDS011;56075;51.264;7.150;2023-08-01T03:48:54;34.97;;;11.35;;
20832;SDS011;56075;51.264;7.150;2023-08-01T03:51:25;33.55;;;11.88;;
20832;SDS011;56075;51.264;7.150;2023-08-01T03:53:56;33.30;;;12.18;;
20832;SDS011;56075;51.264;7.150;2023-08-01T03:56:29;34.08;;;11.25;;
20832;SDS011;56075;51.264;7.150;2023-08-01T03:59:00;37.47;;;11.95;;
20832;SDS011;56075;51.264;7.150;2023-08-01T04:01:31;32.08;;;12.90;;
20832;SDS011;56075;51.264;7.150;2023-08-01T04:04:02;37.05;;;13.25;;
20832;SDS011;56075;51.264;7.150;2023-08-01T04:06:34;31.38;;;12.60;;
20832;SDS011;56075;51.264;7.150;2023-08-01T04:09:05;35.45;;;12.13;;
20832;SDS011;56075;51.264;7.150;2023-08-01T04:11:37;33.50;;;12.65;;
20832;SDS011;56075;51.264;7.150;2023-08-01T04:14:08;35.90;;;12.82;;
20832;SDS011;56075;51.264;7.150;2023-08-01T04:16:39;34.83;;;12.68;;
20832;SDS011;56075;51.264;7.150;2023-08-01T04:19:10;33.58;;;12.63;;
20832;SDS011;56075;51.264;7.150;2023-08-01T04:21:41;40.47;;;12.65;;
20832;SDS011;56075;51.264;7.150;2023-08-01T04:24:13;44.28;;;13.73;;
20832;SDS011;56075;51.264;7.150;2023-08-01T04:26:44;37.83;;;13.07;;
20832;SDS011;56075;51.264;7.150;2023-08-01T04:29:15;40.17;;;12.77;;
20832;SDS011;56075;51.264;7.150;2023-08-01T04:31:48;33.35;;;12.50;;
20832;SDS011;56075;51.264;7.150;2023-08-01T04:34:19;37.75;;;12.18;;
20832;SDS011;56075;51.264;7.150;2023-08-01T04:36:50;36.65;;;12.13;;
20832;SDS011;56075;51.264;7.150;2023-08-01T04:39:21;34.47;;;12.07;;
20832;SDS011;56075;51.264;7.150;2023-08-01T04:41:53;32.50;;;11.30;;
20832;SDS011;56075;51.264;7.150;2023-08-01T04:44:24;36.53;;;11.63;;
20832;SDS011;56075;51.264;7.150;2023-08-01T04:46:55;33.70;;;11.70;;
20832;SDS011;56075;51.264;7.150;2023-08-01T04:49:26;35.33;;;11.15;;
20832;SDS011;56075;51.264;7.150;2023-08-01T04:51:57;36.45;;;12.13;;
20832;SDS011;56075;51.264;7.150;2023-08-01T04:54:28;34.05;;;12.50;;
20832;SDS011;56075;51.264;7.150;2023-08-01T04:56:59;36.55;;;12.05;;
20832;SDS011;56075;51.264;7.150;2023-08-01T04:59:31;35.33;;;12.80;;
20832;SDS011;56075;51.264;7.150;2023-08-01T05:02:02;37.67;;;13.27;;
20832;SDS011;56075;51.264;7.150;2023-08-01T05:04:33;35.50;;;13.13;;
20832;SDS011;56075;51.264;7.150;2023-08-01T05:07:04;38.28;;;13.75;;
20832;SDS011;56075;51.264;7.150;2023-08-01T05:09:36;35.70;;;13.23;;
20832;SDS011;56075;51.264;7.150;2023-08-01T05:12:07;35.78;;;13.77;;
20832;SDS011;56075;51.264;7.150;2023-08-01T05:14:39;39.53;;;13.15;;
20832;SDS011;56075;51.264;7.150;2023-08-01T05:17:10;30.23;;;12.20;;
20832;SDS011;56075;51.264;7.150;2023-08-01T05:19:41;34.53;;;12.95;;
20832;SDS011;56075;51.264;7.150;2023-08-01T05:22:13;30.77;;;12.25;;
20832;SDS011;56075;51.264;7.150;2023-08-01T05:24:44;36.90;;;12.95;;
20832;SDS011;56075;51.264;7.150;2023-08-01T05:27:15;37.15;;;13.82;;
20832;SDS011;56075;51.264;7.150;2023-08-01T05:29:46;40.75;;;13.73;;
20832;SDS011;56075;51.264;7.150;2023-08-01T05:32:17;36.30;;;13.88;;
20832;SDS011;56075;51.264;7.150;2023-08-01T05:34:49;42.20;;;14.02;;
20832;SDS011;56075;51.264;7.150;2023-08-01T05:37:20;36.58;;;14.00;;
20832;SDS011;56075;51.264;7.150;2023-08-01T05:39:51;35.22;;;13.30;;
20832;SDS011;56075;51.264;7.150;2023-08-01T05:42:22;38.67;;;14.10;;
20832;SDS011;56075;51.264;7.150;2023-08-01T05:44:53;37.90;;;14.07;;
20832;SDS011;56075;51.264;7.150;2023-08-01T05:47:25;40.35;;;13.43;;
20832;SDS011;56075;51.264;7.150;2023-08-01T05:49:56;45.90;;;14.38;;
20832;SDS011;56075;51.264;7.150;2023-08-01T05:52:27;38.20;;;13.00;;
20832;SDS011;56075;51.264;7.150;2023-08-01T05:54:58;39.22;;;13.38;;
20832;SDS011;56075;51.264;7.150;2023-08-01T05:57:29;32.88;;;13.48;;
20832;SDS011;56075;51.264;7.150;2023-08-01T06:00:01;36.72;;;12.88;;
20832;SDS011;56075;51.264;7.150;2023-08-01T06:02:43;32.47;;;12.40;;
20832;SDS011;56075;51.264;7.150;2023-08-01T06:05:14;32.40;;;11.70;;
20832;SDS011;56075;51.264;7.150;2023-08-01T06:07:45;30.95;;;12.25;;
20832;SDS011;56075;51.264;7.150;2023-08-01T06:10:16;31.52;;;12.32;;
20832;SDS011;56075;51.264;7.150;2023-08-01T06:12:48;31.58;;;11.57;;
20832;SDS011;56075;51.264;7.150;2023-08-01T06:15:19;29.75;;;10.90;;
20832;SDS011;56075;51.264;7.150;2023-08-01T06:17:51;31.40;;;10.95;;
20832;SDS011;56075;51.264;7.150;2023-08-01T06:20:23;32.75;;;11.57;;
20832;SDS011;56075;51.264;7.150;2023-08-01T06:22:54;26.20;;;10.07;;
20832;SDS011;56075;51.264;7.150;2023-08-01T06:25:25;27.33;;;10.88;;
20832;SDS011;56075;51.264;7.150;2023-08-01T06:27:56;24.88;;;9.85;;
20832;SDS011;56075;51.264;7.150;2023-08-01T06:30:27;26.38;;;10.32;;
20832;SDS011;56075;51.264;7.150;2023-08-01T06:32:58;25.15;;;10.40;;
20832;SDS011;56075;51.264;7.150;2023-08-01T06:35:30;27.20;;;10.27;;
20832;SDS011;56075;51.264;7.150;2023-08-01T06:38:01;22.90;;;9.02;;
20832;SDS011;56075;51.264;7.150;2023-08-01T06:40:32;22.30;;;8.70;;
20832;SDS011;56075;51.264;7.150;2023-08-01T06:43:03;25.35;;;9.15;;
20832;SDS011;56075;51.264;7.150;2023-08-01T06:45:34;23.45;;;8.73;;
20832;SDS011;56075;51.264;7.150;2023-08-01T06:48:05;24.92;;;8.18;;
20832;SDS011;56075;51.264;7.150;2023-08-01T06:50:37;24.48;;;8.70;;
20832;SDS011;56075;51.264;7.150;2023-08-01T06:53:08;29.13;;;8.85;;
20832;SDS011;56075;51.264;7.150;2023-08-01T06:55:39;24.50;;;8.10;;
20832;SDS011;56075;51.264;7.150;2023-08-01T06:58:10;21.58;;;8.38;;
20832;SDS011;56075;51.264;7.150;2023-08-01T07:00:41;24.63;;;8.38;;
20832;SDS011;56075;51.264;7.150;2023-08-01T07:03:12;26.25;;;8.77;;
20832;SDS011;56075;51.264;7.150;2023-08-01T07:05:44;22.55;;;8.63;;
20832;SDS011;56075;51.264;7.150;2023-08-01T07:08:15;28.33;;;8.60;;
20832;SDS011;56075;51.264;7.150;2023-08-01T07:10:46;25.00;;;8.05;;
20832;SDS011;56075;51.264;7.150;2023-08-01T07:13:17;24.67;;;8.35;;
20832;SDS011;56075;51.264;7.150;2023-08-01T07:15:50;22.45;;;8.18;;
20832;SDS011;56075;51.264;7.150;2023-08-01T07:18:21;24.13;;;8.18;;
20832;SDS011;56075;51.264;7.150;2023-08-01T07:20:59;21.58;;;7.32;;
20832;SDS011;56075;51.264;7.150;2023-08-01T07:23:34;18.90;;;7.13;;
20832;SDS011;56075;51.264;7.150;2023-08-01T07:26:06;22.00;;;7.72;;
20832;SDS011;56075;51.264;7.150;2023-08-01T07:28:37;18.63;;;8.00;;
20832;SDS011;56075;51.264;7.150;2023-08-01T07:31:08;20.65;;;7.07;;
20832;SDS011;56075;51.264;7.150;2023-08-01T07:33:41;22.92;;;6.75;;
20832;SDS011;56075;51.264;7.150;2023-08-01T07:36:12;17.55;;;6.88;;
20832;SDS011;56075;51.264;7.150;2023-08-01T07:38:43;22.67;;;7.57;;
20832;SDS011;56075;51.264;7.150;2023-08-01T07:41:14;24.40;;;7.72;;
20832;SDS011;56075;51.264;7.150;2023-08-01T07:43:45;20.65;;;7.57;;
20832;SDS011;56075;51.264;7.150;2023-08-01T07:46:17;16.40;;;7.03;;
20832;SDS011;56075;51.264;7.150;2023-08-01T07:48:48;20.10;;;6.60;;
20832;SDS011;56075;51.264;7.150;2023-08-01T07:51:20;20.60;;;6.93;;
20832;SDS011;56075;51.264;7.150;2023-08-01T07:53:51;18.50;;;6.60;;
20832;SDS011;56075;51.264;7.150;2023-08-01T07:56:23;18.77;;;6.78;;
20832;SDS011;56075;51.264;7.150;2023-08-01T07:58:55;17.60;;;7.18;;
20832;SDS011;56075;51.264;7.150;2023-08-01T08:01:26;17.38;;;7.38;;
20832;SDS011;56075;51.264;7.150;2023-08-01T08:03:57;15.02;;;6.68;;
20832;SDS011;56075;51.264;7.150;2023-08-01T08:06:28;15.88;;;6.55;;
20832;SDS011;56075;51.264;7.150;2023-08-01T08:08:59;20.17;;;6.47;;
20832;SDS011;56075;51.264;7.150;2023-08-01T08:11:31;18.30;;;6.32;;
20832;SDS011;56075;51.264;7.150;2023-08-01T08:14:02;18.60;;;6.47;;
20832;SDS011;56075;51.264;7.150;2023-08-01T08:16:36;17.08;;;6.60;;
20832;SDS011;56075;51.264;7.150;2023-08-01T08:19:07;17.08;;;7.50;;
20832;SDS011;56075;51.264;7.150;2023-08-01T08:21:40;22.10;;;8.10;;
20832;SDS011;56075;51.264;7.150;2023-08-01T08:24:11;20.67;;;7.72;;
20832;SDS011;56075;51.264;7.150;2023-08-01T08:26:42;15.50;;;7.07;;
20832;SDS011;56075;51.264;7.150;2023-08-01T08:29:13;19.75;;;6.93;;
20832;SDS011;56075;51.264;7.150;2023-08-01T08:31:44;20.50;;;7.25;;
20832;SDS011;56075;51.264;7.150;2023-08-01T08:34:16;20.25;;;6.60;;
20832;SDS011;56075;51.264;7.150;2023-08-01T08:36:47;19.42;;;6.32;;
20832;SDS011;56075;51.264;7.150;2023-08-01T08:39:20;14.73;;;6.97;;
20832;SDS011;56075;51.264;7.150;2023-08-01T08:41:52;17.88;;;6.63;;
20832;SDS011;56075;51.264;7.150;2023-08-01T08:44:23;17.73;;;6.60;;
20832;SDS011;56075;51.264;7.150;2023-08-01T08:46:55;19.08;;;7.10;;
20832;SDS011;56075;51.264;7.150;2023-08-01T08:49:34;13.52;;;5.53;;
20832;SDS011;56075;51.264;7.150;2023-08-01T08:52:06;17.20;;;6.75;;
20832;SDS011;56075;51.264;7.150;2023-08-01T08:54:38;11.18;;;5.40;;
20832;SDS011;56075;51.264;7.150;2023-08-01T08:57:10;12.90;;;5.60;;
20832;SDS011;56075;51.264;7.150;2023-08-01T08:59:42;12.55;;;5.72;;
20832;SDS011;56075;51.264;7.150;2023-08-01T09:02:15;16.48;;;5.90;;
20832;SDS011;56075;51.264;7.150;2023-08-01T09:04:47;13.85;;;5.30;;
20832;SDS011;56075;51.264;7.150;2023-08-01T09:07:19;11.68;;;4.90;;
20832;SDS011;56075;51.264;7.150;2023-08-01T09:09:53;9.88;;;5.40;;
20832;SDS011;56075;51.264;7.150;2023-08-01T09:12:25;12.50;;;5.13;;
20832;SDS011;56075;51.264;7.150;2023-08-01T09:14:57;12.02;;;5.03;;
20832;SDS011;56075;51.264;7.150;2023-08-01T09:17:28;17.25;;;4.68;;
20832;SDS011;56075;51.264;7.150;2023-08-01T09:20:05;11.05;;;4.63;;
20832;SDS011;56075;51.264;7.150;2023-08-01T09:22:43;14.52;;;4.95;;
20832;SDS011;56075;51.264;7.150;2023-08-01T09:25:15;12.35;;;4.68;;
20832;SDS011;56075;51.264;7.150;2023-08-01T09:27:47;12.45;;;4.57;;
20832;SDS011;56075;51.264;7.150;2023-08-01T09:30:18;13.50;;;4.40;;
20832;SDS011;56075;51.264;7.150;2023-08-01T09:32:55;9.43;;;4.15;;
20832;SDS011;56075;51.264;7.150;2023-08-01T09:35:26;12.80;;;4.05;;
20832;SDS011;56075;51.264;7.150;2023-08-01T09:37:57;11.50;;;4.30;;
20832;SDS011;56075;51.264;7.150;2023-08-01T09:40:37;11.85;;;3.92;;
20832;SDS011;56075;51.264;7.150;2023-08-01T09:43:10;9.98;;;3.72;;
20832;SDS011;56075;51.264;7.150;2023-08-01T09:45:51;9.20;;;4.00;;
20832;SDS011;56075;51.264;7.150;2023-08-01T09:48:24;9.40;;;3.83;;
20832;SDS011;56075;51.264;7.150;2023-08-01T09:53:47;13.25;;;3.80;;
20832;SDS011;56075;51.264;7.150;2023-08-01T09:56:20;12.68;;;4.13;;
20832;SDS011;56075;51.264;7.150;2023-08-01T09:58:56;10.45;;;4.28;;
20832;SDS011;56075;51.264;7.150;2023-08-01T10:01:30;12.18;;;3.67;;
20832;SDS011;56075;51.264;7.150;2023-08-01T10:04:03;8.27;;;3.72;;
20832;SDS011;56075;51.264;7.150;2023-08-01T10:06:37;7.80;;;3.72;;
20832;SDS011;56075;51.264;7.150;2023-08-01T10:09:11;8.02;;;3.72;;
20832;SDS011;56075;51.264;7.150;2023-08-01T10:11:43;12.32;;;3.78;;
20832;SDS011;56075;51.264;7.150;2023-08-01T10:14:15;9.00;;;3.63;;
20832;SDS011;56075;51.264;7.150;2023-08-01T10:16:47;9.05;;;3.22;;
20832;SDS011;56075;51.264;7.150;2023-08-01T10:19:19;10.52;;;3.90;;
20832;SDS011;56075;51.264;7.150;2023-08-01T10:21:52;7.20;;;3.92;;
20832;SDS011;56075;51.264;7.150;2023-08-01T10:24:25;7.72;;;3.53;;
20832;SDS011;56075;51.264;7.150;2023-08-01T10:27:08;9.15;;;3.70;;
20832;SDS011;56075;51.264;7.150;2023-08-01T10:29:45;8.13;;;3.47;;
20832;SDS011;56075;51.264;7.150;2023-08-01T10:32:27;8.07;;;3.53;;
20832;SDS011;56075;51.264;7.150;2023-08-01T10:35:07;7.75;;;3.55;;
20832;SDS011;56075;51.264;7.150;2023-08-01T10:37:39;7.78;;;3.50;;
20832;SDS011;56075;51.264;7.150;2023-08-01T10:40:17;10.18;;;3.47;;
20832;SDS011;56075;51.264;7.150;2023-08-01T10:42:49;11.43;;;3.50;;
20832;SDS011;56075;51.264;7.150;2023-08-01T10:45:22;7.75;;;3.40;;
20832;SDS011;56075;51.264;7.150;2023-08-01T10:47:54;6.95;;;3.50;;
20832;SDS011;56075;51.264;7.150;2023-08-01T10:50:36;10.05;;;3.60;;
20832;SDS011;56075;51.264;7.150;2023-08-01T10:53:08;9.50;;;3.60;;
20832;SDS011;56075;51.264;7.150;2023-08-01T10:55:44;7.32;;;3.15;;
20832;SDS011;56075;51.264;7.150;2023-08-01T10:58:16;8.77;;;3.38;;
20832;SDS011;56075;51.264;7.150;2023-08-01T11:00:56;13.50;;;3.28;;
20832;SDS011;56075;51.264;7.150;2023-08-01T11:03:38;7.75;;;2.60;;
20832;SDS011;56075;51.264;7.150;2023-08-01T11:06:10;7.43;;;2.90;;
20832;SDS011;56075;51.264;7.150;2023-08-01T11:08:41;6.20;;;2.88;;
20832;SDS011;56075;51.264;7.150;2023-08-01T11:11:14;8.48;;;3.22;;
20832;SDS011;56075;51.264;7.150;2023-08-01T11:13:52;9.80;;;3.05;;
20832;SDS011;56075;51.264;7.150;2023-08-01T11:16:24;7.85;;;3.40;;
20832;SDS011;56075;51.264;7.150;2023-08-01T11:18:56;6.07;;;2.83;;
20832;SDS011;56075;51.264;7.150;2023-08-01T11:21:27;8.05;;;2.83;;
20832;SDS011;56075;51.264;7.150;2023-08-01T11:23:58;9.05;;;2.92;;
20832;SDS011;56075;51.264;7.150;2023-08-01T11:26:29;7.65;;;3.17;;
20832;SDS011;56075;51.264;7.150;2023-08-01T11:29:01;11.65;;;3.03;;
20832;SDS011;56075;51.264;7.150;2023-08-01T11:31:33;7.15;;;2.90;;
20832;SDS011;56075;51.264;7.150;2023-08-01T11:34:05;5.95;;;2.83;;
20832;SDS011;56075;51.264;7.150;2023-08-01T11:36:36;9.90;;;3.15;;
20832;SDS011;56075;51.264;7.150;2023-08-01T11:39:09;5.65;;;2.42;;
20832;SDS011;56075;51.264;7.150;2023-08-01T11:41:40;7.55;;;2.85;;
20832;SDS011;56075;51.264;7.150;2023-08-01T11:44:12;7.45;;;2.63;;
20832;SDS011;56075;51.264;7.150;2023-08-01T11:46:43;9.10;;;2.45;;
20832;SDS011;56075;51.264;7.150;2023-08-01T11:49:15;7.00;;;2.90;;
20832;SDS011;56075;51.264;7.150;2023-08-01T11:51:46;5.70;;;2.60;;
20832;SDS011;56075;51.264;7.150;2023-08-01T11:54:18;6.40;;;2.50;;
20832;SDS011;56075;51.264;7.150;2023-08-01T11:56:49;9.77;;;2.70;;
20832;SDS011;56075;51.264;7.150;2023-08-01T11:59:31;6.50;;;2.40;;
20832;SDS011;56075;51.264;7.150;2023-08-01T12:02:02;6.50;;;2.17;;
20832;SDS011;56075;51.264;7.150;2023-08-01T12:04:34;5.47;;;2.10;;
20832;SDS011;56075;51.264;7.150;2023-08-01T12:07:12;2.70;;;1.40;;
20832;SDS011;56075;51.264;7.150;2023-08-01T12:09:59;2.95;;;1.50;;
20832;SDS011;56075;51.264;7.150;2023-08-01T12:12:31;3.67;;;1.52;;
20832;SDS011;56075;51.264;7.150;2023-08-01T12:15:02;3.47;;;1.10;;
20832;SDS011;56075;51.264;7.150;2023-08-01T12:17:34;2.60;;;1.10;;
20832;SDS011;56075;51.264;7.150;2023-08-01T12:20:05;6.38;;;1.30;;
20832;SDS011;56075;51.264;7.150;2023-08-01T12:22:37;4.50;;;1.55;;
20832;SDS011;56075;51.264;7.150;2023-08-01T12:25:09;5.22;;;1.33;;
20832;SDS011;56075;51.264;7.150;2023-08-01T12:27:40;4.30;;;1.10;;
20832;SDS011;56075;51.264;7.150;2023-08-01T12:30:11;3.35;;;1.55;;
20832;SDS011;56075;51.264;7.150;2023-08-01T12:32:42;4.32;;;1.45;;
20832;SDS011;56075;51.264;7.150;2023-08-01T12:35:13;3.65;;;1.50;;
20832;SDS011;56075;51.264;7.150;2023-08-01T12:37:44;6.05;;;1.88;;
20832;SDS011;56075;51.264;7.150;2023-08-01T12:40:15;3.97;;;1.48;;
20832;SDS011;56075;51.264;7.150;2023-08-01T12:42:46;2.58;;;1.60;;
20832;SDS011;56075;51.264;7.150;2023-08-01T12:45:18;6.75;;;1.95;;
20832;SDS011;56075;51.264;7.150;2023-08-01T12:47:49;4.97;;;2.10;;
20832;SDS011;56075;51.264;7.150;2023-08-01T12:50:21;3.72;;;1.85;;
20832;SDS011;56075;51.264;7.150;2023-08-01T12:52:52;5.68;;;1.83;;
20832;SDS011;56075;51.264;7.150;2023-08-01T12:55:23;4.57;;;1.80;;
20832;SDS011;56075;51.264;7.150;2023-08-01T12:57:54;4.35;;;1.70;;
20832;SDS011;56075;51.264;7.150;2023-08-01T13:00:25;4.97;;;2.00;;
20832;SDS011;56075;51.264;7.150;2023-08-01T13:02:58;4.60;;;1.58;;
20832;SDS011;56075;51.264;7.150;2023-08-01T13:05:29;4.07;;;2.13;;
20832;SDS011;56075;51.264;7.150;2023-08-01T13:08:01;6.07;;;2.28;;
20832;SDS011;56075;51.264;7.150;2023-08-01T13:10:33;7.22;;;1.92;;
20832;SDS011;56075;51.264;7.150;2023-08-01T13:13:05;4.28;;;1.77;;
20832;SDS011;56075;51.264;7.150;2023-08-01T13:15:37;7.03;;;2.13;;
20832;SDS011;56075;51.264;7.150;2023-08-01T13:18:09;4.03;;;1.70;;
20832;SDS011;56075;51.264;7.150;2023-08-01T13:20:40;4.82;;;2.00;;
20832;SDS011;56075;51.264;7.150;2023-08-01T13:23:11;5.40;;;1.77;;
20832;SDS011;56075;51.264;7.150;2023-08-01T13:25:43;5.90;;;1.80;;
20832;SDS011;56075;51.264;7.150;2023-08-01T13:28:17;6.10;;;1.90;;
20832;SDS011;56075;51.264;7.150;2023-08-01T13:30:48;6.82;;;2.00;;
20832;SDS011;56075;51.264;7.150;2023-08-01T13:33:19;2.90;;;1.42;;
20832;SDS011;56075;51.264;7.150;2023-08-01T13:35:51;5.18;;;2.03;;
20832;SDS011;56075;51.264;7.150;2023-08-01T13:38:24;6.80;;;2.05;;
20832;SDS011;56075;51.264;7.150;2023-08-01T13:40:58;4.68;;;1.80;;
20832;SDS011;56075;51.264;7.150;2023-08-01T13:43:30;5.00;;;1.80;;
20832;SDS011;56075;51.264;7.150;2023-08-01T13:46:13;5.00;;;1.70;;
20832;SDS011;56075;51.264;7.150;2023-08-01T13:48:48;4.80;;;1.90;;
20832;SDS011;56075;51.264;7.150;2023-08-01T13:51:19;3.60;;;1.58;;
20832;SDS011;56075;51.264;7.150;2023-08-01T13:53:50;5.63;;;1.70;;
20832;SDS011;56075;51.264;7.150;2023-08-01T13:56:21;3.72;;;1.88;;
20832;SDS011;56075;51.264;7.150;2023-08-01T13:58:52;5.00;;;2.35;;
20832;SDS011;56075;51.264;7.150;2023-08-01T14:01:24;5.97;;;2.28;;
20832;SDS011;56075;51.264;7.150;2023-08-01T14:03:55;6.32;;;2.28;;
20832;SDS011;56075;51.264;7.150;2023-08-01T14:06:26;5.70;;;2.47;;
20832;SDS011;56075;51.264;7.150;2023-08-01T14:08:57;6.00;;;2.45;;
20832;SDS011;56075;51.264;7.150;2023-08-01T14:11:28;8.30;;;2.40;;
20832;SDS011;56075;51.264;7.150;2023-08-01T14:13:59;6.95;;;2.83;;
20832;SDS011;56075;51.264;7.150;2023-08-01T14:16:31;8.23;;;2.53;;
20832;SDS011;56075;51.264;7.150;2023-08-01T14:19:02;7.47;;;2.58;;
20832;SDS011;56075;51.264;7.150;2023-08-01T14:21:34;7.05;;;2.78;;
20832;SDS011;56075;51.264;7.150;2023-08-01T14:24:06;6.72;;;2.47;;
20832;SDS011;56075;51.264;7.150;2023-08-01T14:26:38;5.93;;;2.15;;
20832;SDS011;56075;51.264;7.150;2023-08-01T14:29:10;5.88;;;2.15;;
20832;SDS011;56075;51.264;7.150;2023-08-01T14:31:41;3.78;;;1.67;;
20832;SDS011;56075;51.264;7.150;2023-08-01T14:34:12;7.28;;;1.77;;
20832;SDS011;56075;51.264;7.150;2023-08-01T14:36:43;5.03;;;1.70;;
20832;SDS011;56075;51.264;7.150;2023-08-01T14:39:14;5.13;;;2.13;;
20832;SDS011;56075;51.264;7.150;2023-08-01T14:41:46;7.10;;;1.88;;
20832;SDS011;56075;51.264;7.150;2023-08-01T14:44:17;4.68;;;1.75;;
20832;SDS011;56075;51.264;7.150;2023-08-01T14:46:48;4.22;;;1.73;;
20832;SDS011;56075;51.264;7.150;2023-08-01T14:49:19;4.57;;;1.58;;
20832;SDS011;56075;51.264;7.150;2023-08-01T14:51:52;5.20;;;1.65;;
20832;SDS011;56075;51.264;7.150;2023-08-01T14:54:23;6.85;;;1.60;;
20832;SDS011;56075;51.264;7.150;2023-08-01T14:56:56;4.70;;;1.60;;
20832;SDS011;56075;51.264;7.150;2023-08-01T14:59:27;4.95;;;1.67;;
20832;SDS011;56075;51.264;7.150;2023-08-01T15:01:58;4.28;;;1.50;;
20832;SDS011;56075;51.264;7.150;2023-08-01T15:04:29;4.07;;;1.45;;
20832;SDS011;56075;51.264;7.150;2023-08-01T15:07:01;4.20;;;1.70;;
20832;SDS011;56075;51.264;7.150;2023-08-01T15:09:34;7.03;;;2.10;;